createdAt,value
2023-04-07T00:05:23.127Z,6.8
2023-04-07T00:11:07.295Z,9.1
2023-04-07T00:16:51.394Z,7.3
2023-04-07T00:22:35.408Z,6.3
2023-04-07T00:28:19.454Z,8.5
2023-04-07T00:34:03.598Z,7
2023-04-07T00:39:47.967Z,9.9
2023-04-07T00:45:32.075Z,9.1
2023-04-07T00:51:17.078Z,9
2023-04-07T00:57:01.382Z,5.5
2023-04-07T01:02:49.626Z,8
2023-04-07T01:08:37.490Z,8.4
2023-04-07T01:14:22.932Z,7.4
2023-04-07T01:20:07.747Z,6.3
2023-04-07T01:26:06.133Z,8.3
2023-04-07T01:31:52.389Z,7.2
2023-04-07T01:37:36.846Z,6
2023-04-07T01:43:22.306Z,7.1
2023-04-07T01:49:07.446Z,6.6
2023-04-07T01:54:52.062Z,7.1
2023-04-07T02:00:36.037Z,6.2
2023-04-07T02:06:23.121Z,4.4
2023-04-07T02:12:09.404Z,5.7
2023-04-07T02:17:56.299Z,5
2023-04-07T02:23:42.151Z,4.9
2023-04-07T02:29:26.212Z,7
2023-04-07T02:35:10.926Z,6.2
2023-04-07T02:40:54.978Z,4.8
2023-04-07T02:46:39.312Z,7.7
2023-04-07T02:52:23.558Z,5.6
2023-04-07T02:58:07.565Z,6.2
2023-04-07T03:03:52.514Z,6.4
2023-04-07T03:09:36.913Z,5.9
2023-04-07T03:15:22.452Z,5.4
2023-04-07T03:21:06.712Z,5.6
2023-04-07T03:26:50.766Z,5.7
2023-04-07T03:32:35.129Z,5.5
2023-04-07T03:38:19.389Z,4.4
2023-04-07T03:44:03.402Z,5
2023-04-07T03:49:47.512Z,4
2023-04-07T03:55:31.507Z,5.2
2023-04-07T04:01:15.608Z,4.9
2023-04-07T04:06:59.567Z,5.4
2023-04-07T04:12:43.869Z,4.1
2023-04-07T04:18:27.943Z,3.7
2023-04-07T04:24:12.302Z,4.3
2023-04-07T04:29:56.694Z,5.8
2023-04-07T04:35:41.033Z,3.9
2023-04-07T04:41:25.045Z,5.8
2023-04-07T04:47:09.191Z,5.3
2023-04-07T04:52:53.247Z,4.2
2023-04-07T04:58:37.487Z,4.2
2023-04-07T05:04:22.460Z,4.2
2023-04-07T05:10:06.625Z,5.5
2023-04-07T05:15:51.881Z,7
2023-04-07T05:21:35.956Z,6.6
2023-04-07T05:27:20.024Z,6.6
2023-04-07T05:33:04.309Z,6.7
2023-04-07T05:38:48.387Z,5.6
2023-04-07T05:44:32.553Z,7.5
2023-04-07T05:50:16.946Z,6.1
2023-04-07T05:56:00.945Z,6.6
2023-04-07T06:01:45.620Z,5.8
2023-04-07T06:07:29.758Z,6.9
2023-04-07T06:13:13.796Z,7.3
2023-04-07T06:19:01.027Z,8.1
2023-04-07T06:24:45.193Z,8.2
2023-04-07T06:30:29.373Z,7.4
2023-04-07T06:36:13.617Z,7.1
2023-04-07T06:41:57.418Z,8.6
2023-04-07T06:47:41.707Z,7.8
2023-04-07T06:53:26.094Z,8.6
2023-04-07T06:59:10.262Z,7.2
2023-04-07T07:04:54.426Z,7.6
2023-04-07T07:10:38.426Z,8.1
2023-04-07T07:16:23.085Z,9
2023-04-07T07:22:06.961Z,9.7
2023-04-07T07:27:50.948Z,11.4
2023-04-07T07:33:35.002Z,11
2023-04-07T07:39:18.934Z,10.7
2023-04-07T07:45:03.109Z,10.6
2023-04-07T07:50:47.029Z,11.7
2023-04-07T07:56:31.250Z,10.9
2023-04-07T08:02:15.727Z,10
2023-04-07T08:07:59.792Z,11.3
2023-04-07T08:13:44.680Z,10.6
2023-04-07T08:19:28.822Z,15
2023-04-07T08:25:12.906Z,13.3
2023-04-07T08:30:56.809Z,14.2
2023-04-07T08:36:42.433Z,13.1
2023-04-07T08:42:30.428Z,12.8
2023-04-07T08:48:19.610Z,10.8
2023-04-07T08:54:07.649Z,10.6
2023-04-07T08:59:51.654Z,10.8
2023-04-07T09:05:35.885Z,8.8
2023-04-07T09:11:19.989Z,9.2
2023-04-07T09:17:04.193Z,12.6
2023-04-07T09:22:48.225Z,9.7
2023-04-07T09:28:37.334Z,7.3
2023-04-07T09:34:31.651Z,8.5
2023-04-07T09:40:16.097Z,8
2023-04-07T09:46:05.458Z,7.9
2023-04-07T09:52:00.261Z,8.7
2023-04-07T09:57:44.846Z,6.9
2023-04-07T10:03:29.516Z,5.9
2023-04-07T10:09:13.788Z,5.7
2023-04-07T10:14:58.204Z,4.7
2023-04-07T10:20:50.331Z,5.2
2023-04-07T10:26:38.288Z,5.7
2023-04-07T10:32:23.740Z,5.8
2023-04-07T10:38:17.793Z,4.3
2023-04-07T10:44:01.846Z,4.6
2023-04-07T10:49:50.715Z,4
2023-04-07T10:55:41.216Z,3.4
2023-04-07T11:01:29.316Z,4.3
2023-04-07T11:07:13.735Z,4
2023-04-07T11:13:08.004Z,3.8
2023-04-07T11:18:52.182Z,3.6
2023-04-07T11:24:39.543Z,4.3
2023-04-07T11:30:24.121Z,4.4
2023-04-07T11:36:09.670Z,9.3
2023-04-07T11:41:53.687Z,6
2023-04-07T11:47:43.888Z,4.7
2023-04-07T11:53:35.215Z,4.2
2023-04-07T11:59:28.839Z,5.2
2023-04-07T12:05:13.541Z,6.1
2023-04-07T12:11:02.486Z,5.5
2023-04-07T12:16:46.803Z,4.6
2023-04-07T12:22:30.927Z,4.3
2023-04-07T12:28:15.468Z,3.2
2023-04-07T12:33:59.411Z,3.8
2023-04-07T12:39:43.456Z,3.7
2023-04-07T12:45:27.584Z,2.9
2023-04-07T12:51:12.569Z,3.3
2023-04-07T12:56:56.503Z,2.9
2023-04-07T13:02:41.924Z,4.5
2023-04-07T13:08:26.439Z,4.4
2023-04-07T13:14:10.646Z,4.2
2023-04-07T13:19:55.789Z,5.1
2023-04-07T13:25:39.973Z,4.5
2023-04-07T13:31:24.808Z,4.7
2023-04-07T13:37:09.086Z,4.2
2023-04-07T13:42:53.078Z,4.5
2023-04-07T13:48:36.968Z,4.4
2023-04-07T13:54:20.889Z,6.3
2023-04-07T14:00:05.150Z,5.4
2023-04-07T14:05:49.450Z,8
2023-04-07T14:11:33.671Z,8.2
2023-04-07T14:17:17.793Z,8.1
2023-04-07T14:23:02.137Z,7.6
2023-04-07T14:28:46.156Z,5.9
2023-04-07T14:34:30.231Z,6.8
2023-04-07T14:40:15.129Z,6.5
2023-04-07T14:45:59.351Z,5.6
2023-04-07T14:51:43.411Z,5.9
2023-04-07T14:57:28.494Z,7.2
2023-04-07T15:03:13.953Z,5.6
2023-04-07T15:08:58.176Z,4.4
2023-04-07T15:14:45.182Z,4.3
2023-04-07T15:20:30.827Z,3.9
2023-04-07T15:26:15.055Z,3.5
2023-04-07T15:31:59.429Z,5.5
2023-04-07T15:37:43.359Z,3.5
2023-04-07T15:43:27.433Z,3.4
2023-04-07T15:49:11.517Z,4.3
2023-04-07T15:54:55.508Z,4.7
2023-04-07T16:00:41.432Z,5.8
2023-04-07T16:06:25.857Z,5
2023-04-07T16:12:09.635Z,5.8
2023-04-07T16:17:54.705Z,5.2
2023-04-07T16:23:38.657Z,5.3
2023-04-07T16:29:23.257Z,3.2
2023-04-07T16:35:07.565Z,3.7
2023-04-07T16:41:05.944Z,3.5
2023-04-07T16:46:49.850Z,5.3
2023-04-07T16:52:34.547Z,3.8
2023-04-07T16:58:18.508Z,4.8
2023-04-07T17:04:03.086Z,4.8
2023-04-07T17:09:48.251Z,4
2023-04-07T17:15:33.413Z,4.4
2023-04-07T17:21:17.443Z,3.6
2023-04-07T17:27:01.434Z,4.5
2023-04-07T17:32:45.708Z,4.6
2023-04-07T17:38:29.742Z,3.6
2023-04-07T17:44:13.692Z,4.1
2023-04-07T17:49:57.759Z,4.2
2023-04-07T17:55:41.838Z,2.9
2023-04-07T18:01:26.489Z,6.6
2023-04-07T18:07:10.714Z,5.2
2023-04-07T18:12:54.686Z,4.7
2023-04-07T18:18:39.017Z,4.5
2023-04-07T18:24:23.251Z,5.5
2023-04-07T18:30:09.095Z,3.5
2023-04-07T18:35:59.112Z,5.1
2023-04-07T18:41:43.214Z,4.1
2023-04-07T18:47:27.389Z,5.6
2023-04-07T18:53:11.559Z,3.6
2023-04-07T18:58:55.646Z,4.4
2023-04-07T19:04:39.772Z,4.3
2023-04-07T19:10:24.021Z,5
2023-04-07T19:16:09.300Z,5.5
2023-04-07T19:21:53.994Z,4.6
2023-04-07T19:27:38.179Z,3.7
2023-04-07T19:33:22.008Z,4.9
2023-04-07T19:39:05.954Z,6.1
2023-04-07T19:44:49.747Z,6.6
2023-04-07T19:50:33.768Z,6.4
2023-04-07T19:56:17.590Z,5
2023-04-07T20:02:02.042Z,5.3
2023-04-07T20:07:46.305Z,3.5
2023-04-07T20:13:30.258Z,4.5
2023-04-07T20:19:15.243Z,6.2
2023-04-07T20:24:59.277Z,6.1
2023-04-07T20:30:43.437Z,4.2
2023-04-07T20:36:27.416Z,5.5
2023-04-07T20:42:11.394Z,5
2023-04-07T20:47:57.460Z,4
2023-04-07T20:53:41.387Z,4.7
2023-04-07T20:59:25.438Z,4.7
2023-04-07T21:05:09.854Z,5.5
2023-04-07T21:10:53.788Z,4.1
2023-04-07T21:16:37.972Z,4.1
2023-04-07T21:22:22.148Z,4.7
2023-04-07T21:28:06.239Z,5.3
2023-04-07T21:33:50.245Z,4.7
2023-04-07T21:39:36.597Z,4.2
2023-04-07T21:45:20.759Z,6.9
2023-04-07T21:51:05.082Z,5.3
2023-04-07T21:56:50.670Z,4.3
2023-04-07T22:02:37.297Z,3.2
2023-04-07T22:08:21.544Z,3.5
2023-04-07T22:14:06.482Z,3.6
2023-04-07T22:19:50.368Z,4.1
2023-04-07T22:25:34.553Z,5.4
2023-04-07T22:31:18.834Z,5.5
2023-04-07T22:37:02.934Z,4.1
2023-04-07T22:42:47.124Z,3.9
2023-04-07T22:48:31.169Z,4.3
2023-04-07T22:54:15.196Z,5.2
2023-04-07T22:59:59.325Z,4.2
2023-04-07T23:05:43.238Z,5.6
2023-04-07T23:11:27.273Z,4.3
2023-04-07T23:17:12.251Z,3.9
2023-04-07T23:22:56.342Z,5.7
2023-04-07T23:28:40.213Z,4.2
2023-04-07T23:34:24.050Z,6
2023-04-07T23:40:08.718Z,5.4
2023-04-07T23:45:52.807Z,6
2023-04-07T23:51:36.853Z,6.4
2023-04-07T23:57:20.918Z,5.1
